createdAt,value
2018-10-07T00:02:12.433Z,14.00
2018-10-07T00:04:48.045Z,13.90
2018-10-07T00:07:23.601Z,13.80
2018-10-07T00:09:59.044Z,13.70
2018-10-07T00:12:34.540Z,13.60
2018-10-07T00:15:10.238Z,13.60
2018-10-07T00:17:45.673Z,13.50
2018-10-07T00:20:21.505Z,13.50
2018-10-07T00:22:56.996Z,13.50
2018-10-07T00:25:32.544Z,13.50
2018-10-07T00:28:08.030Z,13.50
2018-10-07T00:30:43.584Z,13.50
2018-10-07T00:33:18.961Z,13.50
2018-10-07T00:35:54.440Z,13.50
2018-10-07T00:38:29.845Z,13.50
2018-10-07T00:41:05.354Z,13.50
2018-10-07T00:43:40.869Z,13.50
2018-10-07T00:46:16.304Z,13.40
2018-10-07T00:48:51.764Z,13.40
2018-10-07T00:51:27.305Z,13.40
2018-10-07T00:54:02.727Z,13.40
2018-10-07T00:56:38.219Z,13.40
2018-10-07T00:59:13.627Z,13.30
2018-10-07T01:01:49.203Z,13.30
2018-10-07T01:04:24.509Z,13.20
2018-10-07T01:06:59.893Z,13.10
2018-10-07T01:09:35.412Z,13.10
2018-10-07T01:12:11.037Z,13.00
2018-10-07T01:14:46.692Z,12.80
2018-10-07T01:17:22.148Z,12.80
2018-10-07T01:19:57.557Z,12.40
2018-10-07T01:22:33.037Z,12.30
2018-10-07T01:25:08.371Z,12.00
2018-10-07T01:27:44.021Z,11.90
2018-10-07T01:30:22.391Z,11.90
2018-10-07T01:32:57.896Z,11.80
2018-10-07T01:35:33.493Z,11.60
2018-10-07T01:38:08.909Z,11.50
2018-10-07T01:40:44.470Z,11.50
2018-10-07T01:43:19.977Z,11.50
2018-10-07T01:45:55.481Z,11.40
2018-10-07T01:48:31.033Z,11.30
2018-10-07T01:51:06.574Z,11.20
2018-10-07T01:53:42.127Z,11.20
2018-10-07T01:56:17.499Z,11.10
2018-10-07T01:58:53.514Z,11.00
2018-10-07T02:01:28.910Z,10.80
2018-10-07T02:04:04.400Z,10.60
2018-10-07T02:06:39.901Z,10.40
2018-10-07T02:09:15.292Z,10.30
2018-10-07T02:11:50.706Z,10.20
2018-10-07T02:14:26.253Z,10.00
2018-10-07T02:17:01.566Z,9.90
2018-10-07T02:19:37.103Z,9.80
2018-10-07T02:22:12.506Z,9.80
2018-10-07T02:24:48.105Z,9.60
2018-10-07T02:27:23.593Z,9.50
2018-10-07T02:29:59.056Z,9.50
2018-10-07T02:32:34.432Z,9.40
2018-10-07T02:35:09.963Z,9.30
2018-10-07T02:37:45.288Z,9.30
2018-10-07T02:40:20.902Z,9.10
2018-10-07T02:42:56.283Z,9.10
2018-10-07T02:45:31.825Z,9.10
2018-10-07T02:48:07.210Z,9.20
2018-10-07T02:50:42.610Z,9.10
2018-10-07T02:53:18.133Z,9.10
2018-10-07T02:55:53.643Z,9.20
2018-10-07T02:58:29.840Z,9.10
2018-10-07T03:01:05.315Z,9.10
2018-10-07T03:03:40.860Z,9.10
2018-10-07T03:06:16.469Z,9.10
2018-10-07T03:08:51.767Z,9.00
2018-10-07T03:11:27.350Z,9.10
2018-10-07T03:14:02.959Z,9.10
2018-10-07T03:16:38.642Z,9.00
2018-10-07T03:19:13.988Z,9.00
2018-10-07T03:21:49.394Z,9.10
2018-10-07T03:24:24.976Z,9.10
2018-10-07T03:27:00.581Z,9.10
2018-10-07T03:29:36.121Z,9.10
2018-10-07T03:32:11.670Z,9.10
2018-10-07T03:34:47.013Z,9.10
2018-10-07T03:37:22.557Z,9.00
2018-10-07T03:39:57.926Z,9.00
2018-10-07T03:42:33.436Z,9.00
2018-10-07T03:45:08.784Z,8.90
2018-10-07T03:47:44.319Z,8.90
2018-10-07T03:50:19.818Z,8.90
2018-10-07T03:52:55.279Z,8.90
2018-10-07T03:55:30.605Z,8.90
2018-10-07T03:58:06.213Z,8.90
2018-10-07T04:00:41.517Z,8.90
2018-10-07T04:03:17.051Z,8.80
2018-10-07T04:05:52.730Z,8.90
2018-10-07T04:08:28.340Z,8.90
2018-10-07T04:11:03.838Z,8.80
2018-10-07T04:13:39.457Z,8.80
2018-10-07T04:16:15.138Z,8.80
2018-10-07T04:18:50.904Z,8.70
2018-10-07T04:21:26.473Z,8.80
2018-10-07T04:24:02.010Z,8.80
2018-10-07T04:26:37.433Z,8.80
2018-10-07T04:29:12.948Z,8.80
2018-10-07T04:31:48.686Z,8.80
2018-10-07T04:34:24.122Z,8.80
2018-10-07T04:36:59.633Z,8.80
2018-10-07T04:39:35.146Z,8.80
2018-10-07T04:42:10.742Z,8.80
2018-10-07T04:44:46.348Z,8.70
2018-10-07T04:47:22.737Z,8.70
2018-10-07T04:49:58.307Z,8.70
2018-10-07T04:52:33.585Z,8.70
2018-10-07T04:55:09.033Z,8.70
2018-10-07T04:57:44.841Z,8.70
2018-10-07T05:00:20.229Z,8.70
2018-10-07T05:02:55.796Z,8.70
2018-10-07T05:05:31.563Z,8.70
2018-10-07T05:08:07.417Z,8.60
2018-10-07T05:10:49.937Z,8.50
2018-10-07T05:13:29.132Z,8.40
2018-10-07T05:16:04.702Z,8.30
2018-10-07T05:18:40.204Z,8.20
2018-10-07T05:21:15.760Z,8.10
2018-10-07T05:23:51.133Z,8.00
2018-10-07T05:26:26.618Z,7.90
2018-10-07T05:29:02.055Z,7.90
2018-10-07T05:31:37.475Z,7.80
2018-10-07T05:34:12.833Z,7.80
2018-10-07T05:36:48.550Z,7.70
2018-10-07T05:39:23.877Z,7.70
2018-10-07T05:41:59.319Z,7.60
2018-10-07T05:44:34.906Z,7.60
2018-10-07T05:47:10.403Z,7.70
2018-10-07T05:49:45.862Z,7.60
2018-10-07T05:52:21.325Z,7.60
2018-10-07T05:54:56.717Z,7.50
2018-10-07T05:57:32.106Z,7.50
2018-10-07T06:00:09.545Z,7.50
2018-10-07T06:02:47.159Z,7.50
2018-10-07T06:05:22.467Z,7.50
2018-10-07T06:07:57.845Z,7.50
2018-10-07T06:10:33.223Z,7.60
2018-10-07T06:13:08.786Z,7.80
2018-10-07T06:15:44.601Z,8.30
2018-10-07T06:18:20.199Z,8.90
2018-10-07T06:20:55.460Z,9.50
2018-10-07T06:23:31.145Z,9.80
2018-10-07T06:26:06.514Z,10.20
2018-10-07T06:28:41.961Z,10.80
2018-10-07T06:31:17.173Z,11.10
2018-10-07T06:33:52.817Z,11.50
2018-10-07T06:36:27.508Z,11.50
2018-10-07T06:39:02.455Z,11.90
2018-10-07T06:41:37.269Z,12.30
2018-10-07T06:44:12.146Z,11.90
2018-10-07T06:46:46.986Z,11.90
2018-10-07T06:49:21.920Z,12.20
2018-10-07T06:51:56.665Z,12.40
2018-10-07T06:54:31.356Z,12.40
2018-10-07T06:57:05.981Z,12.40
2018-10-07T06:59:40.940Z,12.70
2018-10-07T07:02:15.640Z,12.30
2018-10-07T07:04:50.492Z,12.10
2018-10-07T07:07:26.334Z,12.10
2018-10-07T07:10:01.304Z,12.00
2018-10-07T07:12:36.023Z,12.30
2018-10-07T07:15:11.050Z,12.20
2018-10-07T07:17:45.688Z,12.00
2018-10-07T07:20:21.558Z,11.80
2018-10-07T07:22:56.941Z,11.70
2018-10-07T07:25:32.639Z,11.60
2018-10-07T07:28:07.981Z,11.00
2018-10-07T07:30:43.493Z,10.60
2018-10-07T07:33:18.874Z,10.30
2018-10-07T07:35:54.565Z,10.00
2018-10-07T07:38:29.853Z,9.90
2018-10-07T07:41:05.348Z,9.80
2018-10-07T07:43:40.831Z,9.80
2018-10-07T07:46:16.316Z,9.90
2018-10-07T07:48:51.777Z,9.90
2018-10-07T07:51:27.464Z,9.80
2018-10-07T07:54:03.545Z,9.90
2018-10-07T07:56:39.149Z,10.00
2018-10-07T07:59:14.465Z,9.90
2018-10-07T08:01:50.149Z,10.00
2018-10-07T08:04:25.569Z,10.00
2018-10-07T08:07:01.295Z,10.20
2018-10-07T08:09:36.625Z,10.30
2018-10-07T08:12:12.181Z,10.40
2018-10-07T08:14:47.669Z,10.30
2018-10-07T08:17:23.293Z,10.50
2018-10-07T08:19:58.741Z,10.50
2018-10-07T08:22:34.353Z,10.60
2018-10-07T08:25:10.038Z,10.50
2018-10-07T08:27:45.557Z,10.60
2018-10-07T08:30:21.038Z,10.60
2018-10-07T08:32:56.610Z,10.70
2018-10-07T08:35:31.884Z,10.70
2018-10-07T08:38:07.215Z,10.60
2018-10-07T08:40:42.646Z,10.80
2018-10-07T08:43:18.408Z,11.10
2018-10-07T08:45:53.877Z,11.20
2018-10-07T08:48:29.321Z,11.30
2018-10-07T08:51:04.614Z,11.40
2018-10-07T08:53:40.373Z,11.50
2018-10-07T08:56:15.804Z,11.50
2018-10-07T08:58:51.257Z,11.50
2018-10-07T09:01:26.711Z,11.50
2018-10-07T09:04:02.132Z,11.50
2018-10-07T09:06:37.474Z,11.50
2018-10-07T09:09:13.267Z,11.60
2018-10-07T09:11:48.506Z,11.60
2018-10-07T09:14:24.569Z,11.50
2018-10-07T09:16:59.965Z,11.50
2018-10-07T09:19:35.603Z,11.60
2018-10-07T09:22:10.944Z,11.70
2018-10-07T09:24:46.489Z,11.90
2018-10-07T09:27:21.926Z,11.80
2018-10-07T09:29:57.446Z,11.90
2018-10-07T09:32:32.973Z,12.00
2018-10-07T09:35:09.340Z,11.90
2018-10-07T09:37:44.796Z,11.90
2018-10-07T09:40:20.268Z,12.10
2018-10-07T09:42:55.734Z,12.10
2018-10-07T09:45:31.157Z,12.20
2018-10-07T09:48:06.686Z,12.20
2018-10-07T09:50:42.139Z,12.30
2018-10-07T09:53:17.509Z,12.40
2018-10-07T09:55:53.277Z,12.50
2018-10-07T09:58:28.682Z,12.50
2018-10-07T10:01:04.189Z,12.50
2018-10-07T10:03:39.369Z,12.50
2018-10-07T10:06:14.845Z,12.60
2018-10-07T10:08:50.076Z,12.70
2018-10-07T10:11:25.495Z,12.70
2018-10-07T10:14:01.040Z,12.80
2018-10-07T10:16:44.138Z,12.70
2018-10-07T10:19:25.985Z,12.70
2018-10-07T10:22:15.298Z,12.70
2018-10-07T10:25:01.541Z,12.90
2018-10-07T10:27:49.905Z,12.80
2018-10-07T10:30:39.501Z,12.90
2018-10-07T10:33:23.545Z,13.10
2018-10-07T10:36:31.140Z,13.10
2018-10-07T10:39:28.199Z,13.20
2018-10-07T10:42:15.415Z,13.30
2018-10-07T10:44:54.673Z,13.20
2018-10-07T10:47:36.217Z,13.10
2018-10-07T10:50:48.045Z,13.10
2018-10-07T10:53:35.849Z,13.30
2018-10-07T10:56:26.578Z,13.30
2018-10-07T10:59:12.021Z,13.70
2018-10-07T11:04:04.584Z,13.80
2018-10-07T11:06:51.073Z,13.70
2018-10-07T11:10:39.232Z,13.70
2018-10-07T11:15:28.607Z,13.80
2018-10-07T11:19:24.970Z,13.70
2018-10-07T11:22:15.036Z,14.00
2018-10-07T11:27:09.413Z,14.10
2018-10-07T11:30:56.529Z,13.80
2018-10-07T11:34:16.041Z,13.80
2018-10-07T11:37:19.886Z,14.10
2018-10-07T11:41:07.969Z,14.00
2018-10-07T11:43:54.201Z,14.10
2018-10-07T11:46:52.214Z,14.20
2018-10-07T11:49:45.504Z,14.30
2018-10-07T11:52:55.970Z,14.30
2018-10-07T11:55:31.402Z,14.30
2018-10-07T11:58:06.970Z,14.40
2018-10-07T12:00:42.672Z,14.50
2018-10-07T12:03:18.218Z,14.60
2018-10-07T12:05:53.804Z,14.40
2018-10-07T12:08:29.260Z,14.40
2018-10-07T12:11:04.864Z,14.50
2018-10-07T12:13:40.407Z,14.50
2018-10-07T12:16:16.221Z,14.30
2018-10-07T12:18:51.614Z,14.30
2018-10-07T12:21:27.299Z,14.30
2018-10-07T12:24:02.878Z,14.30
2018-10-07T12:26:38.529Z,14.40
2018-10-07T12:29:14.067Z,14.50
2018-10-07T12:31:49.459Z,14.70
2018-10-07T12:34:24.878Z,14.70
2018-10-07T12:37:00.800Z,14.70
2018-10-07T12:39:36.579Z,14.70
2018-10-07T12:42:12.108Z,14.70
2018-10-07T12:44:47.505Z,14.50
2018-10-07T12:47:23.214Z,14.30
2018-10-07T12:49:58.552Z,14.00
2018-10-07T12:52:35.179Z,14.30
2018-10-07T12:55:10.613Z,14.40
2018-10-07T12:57:46.271Z,14.30
2018-10-07T13:00:21.793Z,14.30
2018-10-07T13:02:57.192Z,14.50
2018-10-07T13:05:32.650Z,14.50
2018-10-07T13:08:08.095Z,14.60
2018-10-07T13:10:43.581Z,14.60
2018-10-07T13:13:18.557Z,14.80
2018-10-07T13:15:53.442Z,14.70
2018-10-07T13:18:28.364Z,14.60
2018-10-07T13:21:03.010Z,14.50
2018-10-07T13:23:37.991Z,14.70
2018-10-07T13:26:12.664Z,14.70
2018-10-07T13:28:47.504Z,14.80
2018-10-07T13:31:22.096Z,14.80
2018-10-07T13:33:56.921Z,14.80
2018-10-07T13:36:31.560Z,14.70
2018-10-07T13:39:09.093Z,14.40
2018-10-07T13:41:43.612Z,14.50
2018-10-07T13:44:18.468Z,14.40
2018-10-07T13:46:53.125Z,14.40
2018-10-07T13:49:27.980Z,14.50
2018-10-07T13:52:02.722Z,14.70
2018-10-07T13:54:37.619Z,14.70
2018-10-07T13:57:13.096Z,14.70
2018-10-07T13:59:47.891Z,14.90
2018-10-07T14:02:22.522Z,15.00
2018-10-07T14:04:57.389Z,15.00
2018-10-07T14:07:32.199Z,14.80
2018-10-07T14:10:07.252Z,14.70
2018-10-07T14:12:41.880Z,14.60
2018-10-07T14:15:16.688Z,14.50
2018-10-07T14:17:51.590Z,14.30
2018-10-07T14:20:26.330Z,14.20
2018-10-07T14:23:01.221Z,14.10
2018-10-07T14:25:35.903Z,14.00
2018-10-07T14:28:10.714Z,14.10
2018-10-07T14:30:45.360Z,14.10
2018-10-07T14:33:20.158Z,14.00
2018-10-07T14:35:54.947Z,13.90
2018-10-07T14:38:29.957Z,14.00
2018-10-07T14:41:04.571Z,13.90
2018-10-07T14:43:39.430Z,14.00
2018-10-07T14:46:14.002Z,13.80
2018-10-07T14:48:48.914Z,13.70
2018-10-07T14:51:23.513Z,13.70
2018-10-07T14:53:58.384Z,13.60
2018-10-07T14:56:32.979Z,13.60
2018-10-07T14:59:07.842Z,13.50
2018-10-07T15:01:42.415Z,13.50
2018-10-07T15:04:17.155Z,13.50
2018-10-07T15:06:51.801Z,13.40
2018-10-07T15:09:26.555Z,13.30
2018-10-07T15:12:01.133Z,13.30
2018-10-07T15:14:36.044Z,13.30
2018-10-07T15:17:11.007Z,13.30
2018-10-07T15:19:45.638Z,13.30
2018-10-07T15:22:20.502Z,13.30
2018-10-07T15:24:55.448Z,13.30
2018-10-07T15:27:30.319Z,13.30
2018-10-07T15:30:05.363Z,13.20
2018-10-07T15:32:39.932Z,13.10
2018-10-07T15:35:14.840Z,13.00
2018-10-07T15:37:49.590Z,13.00
2018-10-07T15:40:24.322Z,12.90
2018-10-07T15:42:58.888Z,12.90
2018-10-07T15:45:33.713Z,12.80
2018-10-07T15:48:08.362Z,12.80
2018-10-07T15:50:43.340Z,12.70
2018-10-07T15:53:18.020Z,12.60
2018-10-07T15:55:52.947Z,12.50
2018-10-07T15:58:27.693Z,12.40
2018-10-07T16:01:02.532Z,12.40
2018-10-07T16:03:37.424Z,12.30
2018-10-07T16:06:12.396Z,12.20
2018-10-07T16:08:47.191Z,12.20
2018-10-07T16:11:22.005Z,12.10
2018-10-07T16:13:56.733Z,12.00
2018-10-07T16:16:31.692Z,11.90
2018-10-07T16:19:06.400Z,11.80
2018-10-07T16:21:41.498Z,11.80
2018-10-07T16:24:16.206Z,11.70
2018-10-07T16:26:51.174Z,11.70
2018-10-07T16:29:25.864Z,11.60
2018-10-07T16:32:00.790Z,11.50
2018-10-07T16:34:35.333Z,11.40
2018-10-07T16:37:10.086Z,11.30
2018-10-07T16:39:44.745Z,11.20
2018-10-07T16:42:19.686Z,11.10
2018-10-07T16:44:54.373Z,10.90
2018-10-07T16:47:29.320Z,10.80
2018-10-07T16:50:04.651Z,10.80
2018-10-07T16:52:39.477Z,10.70
2018-10-07T16:55:14.117Z,10.70
2018-10-07T16:57:48.944Z,10.50
2018-10-07T17:00:23.598Z,10.50
2018-10-07T17:02:58.397Z,10.40
2018-10-07T17:05:33.774Z,10.30
2018-10-07T17:08:08.762Z,10.20
2018-10-07T17:10:44.277Z,10.20
2018-10-07T17:13:19.294Z,10.10
2018-10-07T17:15:54.213Z,10.10
2018-10-07T17:18:28.934Z,10.00
2018-10-07T17:21:04.369Z,9.90
2018-10-07T17:23:39.821Z,9.80
2018-10-07T17:26:15.361Z,9.70
2018-10-07T17:28:51.042Z,9.70
2018-10-07T17:31:26.581Z,9.70
2018-10-07T17:34:02.374Z,9.70
2018-10-07T17:36:37.980Z,9.70
2018-10-07T17:39:13.903Z,9.70
2018-10-07T17:41:49.297Z,9.60
2018-10-07T17:44:24.993Z,9.60
2018-10-07T17:47:00.237Z,9.50
2018-10-07T17:49:34.985Z,9.50
2018-10-07T17:52:09.594Z,9.40
2018-10-07T17:54:45.194Z,9.40
2018-10-07T17:57:20.738Z,9.40
2018-10-07T17:59:56.214Z,9.40
2018-10-07T18:02:31.497Z,9.30
2018-10-07T18:05:08.024Z,9.30
2018-10-07T18:07:43.501Z,9.30
2018-10-07T18:10:19.254Z,9.20
2018-10-07T18:12:54.735Z,9.20
2018-10-07T18:15:30.354Z,9.10
2018-10-07T18:18:06.299Z,9.10
2018-10-07T18:20:41.928Z,9.10
2018-10-07T18:23:17.394Z,9.10
2018-10-07T18:25:52.908Z,9.10
2018-10-07T18:28:28.393Z,9.00
2018-10-07T18:31:04.044Z,8.90
2018-10-07T18:33:39.513Z,8.90
2018-10-07T18:36:15.060Z,8.80
2018-10-07T18:38:50.702Z,8.80
2018-10-07T18:41:26.397Z,8.70
2018-10-07T18:44:02.003Z,8.70
2018-10-07T18:46:37.421Z,8.70
2018-10-07T18:49:13.150Z,8.70
2018-10-07T18:51:48.641Z,8.60
2018-10-07T18:54:24.090Z,8.60
2018-10-07T18:56:59.651Z,8.60
2018-10-07T18:59:35.061Z,8.60
2018-10-07T19:02:10.809Z,8.60
2018-10-07T19:04:46.256Z,8.70
2018-10-07T19:07:21.792Z,8.60
2018-10-07T19:09:57.293Z,8.70
2018-10-07T19:12:32.689Z,8.60
2018-10-07T19:15:08.217Z,8.50
2018-10-07T19:17:43.972Z,8.50
2018-10-07T19:20:19.320Z,8.50
2018-10-07T19:22:54.786Z,8.60
2018-10-07T19:25:30.162Z,8.50
2018-10-07T19:28:06.381Z,8.50
2018-10-07T19:30:41.841Z,8.40
2018-10-07T19:33:17.523Z,8.40
2018-10-07T19:35:53.013Z,8.30
2018-10-07T19:38:28.445Z,8.40
2018-10-07T19:41:03.749Z,8.30
2018-10-07T19:43:39.320Z,8.40
2018-10-07T19:46:14.789Z,8.40
2018-10-07T19:48:50.237Z,8.40
2018-10-07T19:51:25.979Z,8.30
2018-10-07T19:54:01.684Z,8.30
2018-10-07T19:56:36.929Z,8.30
2018-10-07T19:59:12.549Z,8.20
2018-10-07T20:01:47.962Z,8.20
2018-10-07T20:04:23.585Z,8.10
2018-10-07T20:06:59.035Z,8.10
2018-10-07T20:09:34.487Z,8.00
2018-10-07T20:12:09.837Z,8.10
2018-10-07T20:14:45.208Z,8.10
2018-10-07T20:17:20.546Z,8.10
2018-10-07T20:19:56.165Z,8.00
2018-10-07T20:22:31.641Z,8.00
2018-10-07T20:25:07.113Z,8.00
2018-10-07T20:27:42.555Z,8.00
2018-10-07T20:30:18.050Z,7.90
2018-10-07T20:32:53.433Z,7.90
2018-10-07T20:35:29.035Z,7.90
2018-10-07T20:38:04.349Z,7.90
2018-10-07T20:40:40.018Z,7.80
2018-10-07T20:43:15.248Z,7.80
2018-10-07T20:45:50.755Z,7.80
2018-10-07T20:48:26.210Z,7.80
2018-10-07T20:51:01.843Z,7.80
2018-10-07T20:53:37.372Z,7.70
2018-10-07T20:56:12.717Z,7.70
2018-10-07T20:58:47.935Z,7.70
2018-10-07T21:01:24.419Z,7.70
2018-10-07T21:03:59.670Z,7.70
2018-10-07T21:06:35.509Z,7.70
2018-10-07T21:09:12.273Z,7.60
2018-10-07T21:11:47.799Z,7.60
2018-10-07T21:14:23.285Z,7.60
2018-10-07T21:16:58.996Z,7.60
2018-10-07T21:19:34.510Z,7.50
2018-10-07T21:22:10.001Z,7.50
2018-10-07T21:24:45.389Z,7.50
2018-10-07T21:27:21.149Z,7.50
2018-10-07T21:29:56.486Z,7.50
2018-10-07T21:32:32.244Z,7.50
2018-10-07T21:35:07.679Z,7.60
2018-10-07T21:37:43.250Z,7.70
2018-10-07T21:40:18.682Z,7.80
2018-10-07T21:42:54.066Z,8.00
2018-10-07T21:45:29.601Z,8.00
2018-10-07T21:48:05.266Z,8.10
2018-10-07T21:50:40.949Z,8.20
2018-10-07T21:53:16.696Z,8.00
2018-10-07T21:55:52.040Z,7.80
2018-10-07T21:58:27.722Z,7.60
2018-10-07T22:01:03.212Z,7.60
2018-10-07T22:03:38.889Z,7.50
2018-10-07T22:06:14.362Z,7.50
2018-10-07T22:08:49.885Z,7.50
2018-10-07T22:11:25.438Z,7.40
2018-10-07T22:14:01.181Z,7.30
2018-10-07T22:16:36.472Z,7.30
2018-10-07T22:19:12.517Z,7.30
2018-10-07T22:21:47.850Z,7.30
2018-10-07T22:24:23.219Z,7.30
2018-10-07T22:26:58.756Z,7.20
2018-10-07T22:29:34.192Z,7.20
2018-10-07T22:32:09.807Z,7.20
2018-10-07T22:34:45.464Z,7.20
2018-10-07T22:37:21.182Z,7.10
2018-10-07T22:39:56.557Z,7.20
2018-10-07T22:42:31.990Z,7.20
2018-10-07T22:45:07.632Z,7.20
2018-10-07T22:47:43.128Z,7.20
2018-10-07T22:50:18.663Z,7.10
2018-10-07T22:52:54.150Z,7.10
2018-10-07T22:55:29.707Z,7.00
2018-10-07T22:58:05.561Z,7.00
2018-10-07T23:00:41.143Z,7.00
2018-10-07T23:03:16.389Z,7.00
2018-10-07T23:05:51.821Z,6.90
2018-10-07T23:08:26.993Z,6.90
2018-10-07T23:11:02.309Z,7.00
2018-10-07T23:13:38.142Z,7.00
2018-10-07T23:16:13.492Z,6.90
2018-10-07T23:18:48.921Z,6.90
2018-10-07T23:21:24.740Z,6.90
2018-10-07T23:24:00.083Z,6.90
2018-10-07T23:26:35.545Z,6.90
2018-10-07T23:29:10.788Z,6.90
2018-10-07T23:31:46.478Z,7.00
2018-10-07T23:34:21.692Z,7.00
2018-10-07T23:36:57.345Z,7.00
2018-10-07T23:39:32.961Z,7.00
2018-10-07T23:42:08.673Z,7.00
2018-10-07T23:44:44.242Z,6.90
2018-10-07T23:47:19.780Z,6.90
2018-10-07T23:49:55.116Z,6.90
2018-10-07T23:52:30.675Z,6.90
2018-10-07T23:55:06.000Z,6.90
2018-10-07T23:57:41.436Z,6.90
